sensor_id;sensor_type;location;lat;lon;timestamp;P1;durP1;ratioP1;P2;durP2;ratioP2
57643;SDS011;43474;46.510;6.686;2023-04-01T00:00:05;52.30;;;49.33;;
57643;SDS011;43474;46.510;6.686;2023-04-01T00:02:51;67.68;;;64.68;;
57643;SDS011;43474;46.510;6.686;2023-04-01T00:05:17;62.90;;;60.05;;
57643;SDS011;43474;46.510;6.686;2023-04-01T00:07:43;65.55;;;62.33;;
57643;SDS011;43474;46.510;6.686;2023-04-01T00:10:09;93.93;;;89.85;;
57643;SDS011;43474;46.510;6.686;2023-04-01T00:12:37;86.72;;;82.63;;
57643;SDS011;43474;46.510;6.686;2023-04-01T00:15:04;86.13;;;82.30;;
57643;SDS011;43474;46.510;6.686;2023-04-01T00:17:31;81.00;;;77.32;;
57643;SDS011;43474;46.510;6.686;2023-04-01T00:19:56;84.03;;;79.82;;
57643;SDS011;43474;46.510;6.686;2023-04-01T00:22:25;74.65;;;71.22;;
57643;SDS011;43474;46.510;6.686;2023-04-01T00:24:52;75.10;;;71.50;;
57643;SDS011;43474;46.510;6.686;2023-04-01T00:27:18;80.20;;;76.22;;
57643;SDS011;43474;46.510;6.686;2023-04-01T00:29:44;87.45;;;83.35;;
57643;SDS011;43474;46.510;6.686;2023-04-01T00:32:12;88.05;;;84.07;;
57643;SDS011;43474;46.510;6.686;2023-04-01T00:34:37;88.82;;;84.68;;
57643;SDS011;43474;46.510;6.686;2023-04-01T00:37:03;101.57;;;96.78;;
57643;SDS011;43474;46.510;6.686;2023-04-01T00:39:29;122.30;;;116.70;;
57643;SDS011;43474;46.510;6.686;2023-04-01T00:41:56;104.90;;;100.15;;
57643;SDS011;43474;46.510;6.686;2023-04-01T00:44:26;106.47;;;101.72;;
57643;SDS011;43474;46.510;6.686;2023-04-01T00:46:54;101.13;;;96.75;;
57643;SDS011;43474;46.510;6.686;2023-04-01T00:49:20;88.13;;;84.05;;
57643;SDS011;43474;46.510;6.686;2023-04-01T00:51:50;84.60;;;80.63;;
57643;SDS011;43474;46.510;6.686;2023-04-01T00:54:18;82.03;;;78.35;;
57643;SDS011;43474;46.510;6.686;2023-04-01T00:56:59;73.05;;;69.88;;
57643;SDS011;43474;46.510;6.686;2023-04-01T01:01:56;81.72;;;77.82;;
57643;SDS011;43474;46.510;6.686;2023-04-01T01:04:25;80.50;;;76.90;;
57643;SDS011;43474;46.510;6.686;2023-04-01T01:07:06;81.15;;;77.55;;
57643;SDS011;43474;46.510;6.686;2023-04-01T01:10:15;81.03;;;77.40;;
57643;SDS011;43474;46.510;6.686;2023-04-01T01:15:16;72.43;;;69.00;;
57643;SDS011;43474;46.510;6.686;2023-04-01T01:17:55;74.20;;;71.00;;
57643;SDS011;43474;46.510;6.686;2023-04-01T01:23:42;72.32;;;69.00;;
57643;SDS011;43474;46.510;6.686;2023-04-01T01:31:37;78.68;;;75.00;;
57643;SDS011;43474;46.510;6.686;2023-04-01T01:37:00;80.10;;;76.57;;
57643;SDS011;43474;46.510;6.686;2023-04-01T01:39:30;84.82;;;81.15;;
57643;SDS011;43474;46.510;6.686;2023-04-01T01:42:00;75.25;;;71.95;;
57643;SDS011;43474;46.510;6.686;2023-04-01T01:44:29;71.15;;;68.15;;
57643;SDS011;43474;46.510;6.686;2023-04-01T01:46:56;63.95;;;61.05;;
57643;SDS011;43474;46.510;6.686;2023-04-01T01:49:23;61.78;;;59.08;;
57643;SDS011;43474;46.510;6.686;2023-04-01T01:51:50;63.38;;;60.45;;
57643;SDS011;43474;46.510;6.686;2023-04-01T01:54:17;61.22;;;58.35;;
57643;SDS011;43474;46.510;6.686;2023-04-01T01:56:44;68.85;;;65.45;;
57643;SDS011;43474;46.510;6.686;2023-04-01T01:59:14;60.40;;;57.65;;
57643;SDS011;43474;46.510;6.686;2023-04-01T02:01:46;70.25;;;67.18;;
57643;SDS011;43474;46.510;6.686;2023-04-01T02:04:16;68.85;;;65.95;;
57643;SDS011;43474;46.510;6.686;2023-04-01T02:06:45;74.40;;;70.90;;
57643;SDS011;43474;46.510;6.686;2023-04-01T02:09:19;75.43;;;71.93;;
57643;SDS011;43474;46.510;6.686;2023-04-01T02:11:49;74.13;;;70.82;;
57643;SDS011;43474;46.510;6.686;2023-04-01T02:14:22;69.90;;;66.63;;
57643;SDS011;43474;46.510;6.686;2023-04-01T02:17:10;74.45;;;71.15;;
57643;SDS011;43474;46.510;6.686;2023-04-01T02:19:45;78.85;;;75.45;;
57643;SDS011;43474;46.510;6.686;2023-04-01T02:22:12;88.25;;;84.53;;
57643;SDS011;43474;46.510;6.686;2023-04-01T02:24:42;84.10;;;80.38;;
57643;SDS011;43474;46.510;6.686;2023-04-01T02:27:09;80.63;;;76.82;;
57643;SDS011;43474;46.510;6.686;2023-04-01T02:29:35;77.13;;;73.47;;
57643;SDS011;43474;46.510;6.686;2023-04-01T02:32:01;78.30;;;74.65;;
57643;SDS011;43474;46.510;6.686;2023-04-01T02:34:28;73.95;;;70.60;;
57643;SDS011;43474;46.510;6.686;2023-04-01T02:36:54;73.43;;;70.00;;
57643;SDS011;43474;46.510;6.686;2023-04-01T02:39:21;78.82;;;75.43;;
57643;SDS011;43474;46.510;6.686;2023-04-01T02:41:47;86.07;;;81.85;;
57643;SDS011;43474;46.510;6.686;2023-04-01T02:44:14;89.53;;;85.55;;
57643;SDS011;43474;46.510;6.686;2023-04-01T02:46:40;97.25;;;92.80;;
57643;SDS011;43474;46.510;6.686;2023-04-01T02:49:06;94.32;;;90.30;;
57643;SDS011;43474;46.510;6.686;2023-04-01T02:51:32;94.85;;;90.50;;
57643;SDS011;43474;46.510;6.686;2023-04-01T02:53:59;108.07;;;103.30;;
57643;SDS011;43474;46.510;6.686;2023-04-01T02:56:24;99.97;;;95.70;;
57643;SDS011;43474;46.510;6.686;2023-04-01T02:58:51;101.78;;;97.22;;
57643;SDS011;43474;46.510;6.686;2023-04-01T03:01:17;113.82;;;108.53;;
57643;SDS011;43474;46.510;6.686;2023-04-01T03:03:43;106.75;;;102.05;;
57643;SDS011;43474;46.510;6.686;2023-04-01T03:06:10;104.28;;;99.70;;
57643;SDS011;43474;46.510;6.686;2023-04-01T03:08:37;103.45;;;98.78;;
57643;SDS011;43474;46.510;6.686;2023-04-01T03:11:03;105.82;;;101.20;;
57643;SDS011;43474;46.510;6.686;2023-04-01T03:13:29;111.00;;;106.05;;
57643;SDS011;43474;46.510;6.686;2023-04-01T03:15:54;113.22;;;108.22;;
57643;SDS011;43474;46.510;6.686;2023-04-01T03:18:20;111.50;;;106.60;;
57643;SDS011;43474;46.510;6.686;2023-04-01T03:20:46;105.35;;;100.70;;
57643;SDS011;43474;46.510;6.686;2023-04-01T03:23:11;119.45;;;114.35;;
57643;SDS011;43474;46.510;6.686;2023-04-01T03:25:37;121.95;;;116.45;;
57643;SDS011;43474;46.510;6.686;2023-04-01T03:28:03;109.28;;;104.38;;
57643;SDS011;43474;46.510;6.686;2023-04-01T03:30:29;109.68;;;104.80;;
57643;SDS011;43474;46.510;6.686;2023-04-01T03:32:58;95.25;;;91.13;;
57643;SDS011;43474;46.510;6.686;2023-04-01T03:35:27;98.32;;;94.05;;
57643;SDS011;43474;46.510;6.686;2023-04-01T03:37:53;99.95;;;95.60;;
57643;SDS011;43474;46.510;6.686;2023-04-01T03:40:19;96.50;;;92.05;;
57643;SDS011;43474;46.510;6.686;2023-04-01T03:42:46;101.25;;;96.50;;
57643;SDS011;43474;46.510;6.686;2023-04-01T03:45:11;99.50;;;95.25;;
57643;SDS011;43474;46.510;6.686;2023-04-01T03:47:38;96.53;;;92.22;;
57643;SDS011;43474;46.510;6.686;2023-04-01T03:50:04;92.50;;;88.45;;
57643;SDS011;43474;46.510;6.686;2023-04-01T03:52:31;91.00;;;87.03;;
57643;SDS011;43474;46.510;6.686;2023-04-01T03:54:56;86.55;;;82.78;;
57643;SDS011;43474;46.510;6.686;2023-04-01T03:57:22;88.35;;;84.05;;
57643;SDS011;43474;46.510;6.686;2023-04-01T03:59:48;91.40;;;86.90;;
57643;SDS011;43474;46.510;6.686;2023-04-01T04:02:13;70.57;;;67.18;;
57643;SDS011;43474;46.510;6.686;2023-04-01T04:04:39;67.40;;;64.43;;
57643;SDS011;43474;46.510;6.686;2023-04-01T04:07:05;61.35;;;58.65;;
57643;SDS011;43474;46.510;6.686;2023-04-01T04:09:30;59.03;;;56.22;;
57643;SDS011;43474;46.510;6.686;2023-04-01T04:11:56;55.55;;;53.13;;
57643;SDS011;43474;46.510;6.686;2023-04-01T04:14:22;54.03;;;51.55;;
57643;SDS011;43474;46.510;6.686;2023-04-01T04:16:49;53.22;;;50.50;;
57643;SDS011;43474;46.510;6.686;2023-04-01T04:19:14;53.83;;;51.55;;
57643;SDS011;43474;46.510;6.686;2023-04-01T04:21:40;55.15;;;52.58;;
57643;SDS011;43474;46.510;6.686;2023-04-01T04:24:06;55.50;;;52.90;;
57643;SDS011;43474;46.510;6.686;2023-04-01T04:26:33;52.92;;;50.50;;
57643;SDS011;43474;46.510;6.686;2023-04-01T04:28:58;54.60;;;51.90;;
57643;SDS011;43474;46.510;6.686;2023-04-01T04:31:25;51.20;;;48.88;;
57643;SDS011;43474;46.510;6.686;2023-04-01T04:33:51;49.70;;;47.55;;
57643;SDS011;43474;46.510;6.686;2023-04-01T04:36:18;48.53;;;46.33;;
57643;SDS011;43474;46.510;6.686;2023-04-01T04:38:44;47.03;;;44.85;;
57643;SDS011;43474;46.510;6.686;2023-04-01T04:41:10;45.63;;;43.63;;
57643;SDS011;43474;46.510;6.686;2023-04-01T04:43:40;44.47;;;42.47;;
57643;SDS011;43474;46.510;6.686;2023-04-01T04:46:07;44.78;;;42.70;;
57643;SDS011;43474;46.510;6.686;2023-04-01T04:48:34;44.80;;;42.72;;
57643;SDS011;43474;46.510;6.686;2023-04-01T04:51:00;43.85;;;41.70;;
57643;SDS011;43474;46.510;6.686;2023-04-01T04:53:27;41.30;;;39.28;;
57643;SDS011;43474;46.510;6.686;2023-04-01T04:55:53;39.35;;;37.58;;
57643;SDS011;43474;46.510;6.686;2023-04-01T04:58:18;37.63;;;35.85;;
57643;SDS011;43474;46.510;6.686;2023-04-01T05:00:44;34.80;;;33.40;;
57643;SDS011;43474;46.510;6.686;2023-04-01T05:03:10;35.40;;;33.90;;
57643;SDS011;43474;46.510;6.686;2023-04-01T05:05:36;32.30;;;30.90;;
57643;SDS011;43474;46.510;6.686;2023-04-01T05:08:02;31.13;;;29.73;;
57643;SDS011;43474;46.510;6.686;2023-04-01T05:10:28;28.70;;;27.20;;
57643;SDS011;43474;46.510;6.686;2023-04-01T05:12:53;31.35;;;29.85;;
57643;SDS011;43474;46.510;6.686;2023-04-01T05:15:19;29.25;;;27.92;;
57643;SDS011;43474;46.510;6.686;2023-04-01T05:17:45;29.50;;;28.20;;
57643;SDS011;43474;46.510;6.686;2023-04-01T05:20:11;33.33;;;31.75;;
57643;SDS011;43474;46.510;6.686;2023-04-01T05:22:38;33.58;;;32.17;;
57643;SDS011;43474;46.510;6.686;2023-04-01T05:25:04;34.00;;;32.70;;
57643;SDS011;43474;46.510;6.686;2023-04-01T05:27:30;33.83;;;32.35;;
57643;SDS011;43474;46.510;6.686;2023-04-01T05:29:56;32.92;;;31.42;;
57643;SDS011;43474;46.510;6.686;2023-04-01T05:32:22;33.60;;;32.30;;
57643;SDS011;43474;46.510;6.686;2023-04-01T05:34:50;34.40;;;32.83;;
57643;SDS011;43474;46.510;6.686;2023-04-01T05:37:18;34.38;;;32.92;;
57643;SDS011;43474;46.510;6.686;2023-04-01T05:39:44;32.85;;;31.52;;
57643;SDS011;43474;46.510;6.686;2023-04-01T05:42:10;33.83;;;32.25;;
57643;SDS011;43474;46.510;6.686;2023-04-01T05:44:36;31.95;;;30.63;;
57643;SDS011;43474;46.510;6.686;2023-04-01T05:47:03;33.30;;;31.42;;
57643;SDS011;43474;46.510;6.686;2023-04-01T05:49:30;31.83;;;30.40;;
57643;SDS011;43474;46.510;6.686;2023-04-01T05:51:56;31.92;;;30.38;;
57643;SDS011;43474;46.510;6.686;2023-04-01T05:54:22;30.90;;;29.60;;
57643;SDS011;43474;46.510;6.686;2023-04-01T05:56:48;31.88;;;30.23;;
57643;SDS011;43474;46.510;6.686;2023-04-01T05:59:13;30.70;;;29.50;;
57643;SDS011;43474;46.510;6.686;2023-04-01T06:01:39;29.85;;;28.50;;
57643;SDS011;43474;46.510;6.686;2023-04-01T06:04:05;29.67;;;28.27;;
57643;SDS011;43474;46.510;6.686;2023-04-01T06:06:30;28.95;;;27.65;;
57643;SDS011;43474;46.510;6.686;2023-04-01T06:08:58;29.92;;;28.58;;
57643;SDS011;43474;46.510;6.686;2023-04-01T06:11:43;30.25;;;28.90;;
57643;SDS011;43474;46.510;6.686;2023-04-01T06:19:59;35.17;;;33.70;;
57643;SDS011;43474;46.510;6.686;2023-04-01T06:22:47;35.88;;;34.17;;
57643;SDS011;43474;46.510;6.686;2023-04-01T06:31:18;39.60;;;38.00;;
57643;SDS011;43474;46.510;6.686;2023-04-01T06:34:03;41.33;;;39.53;;
57643;SDS011;43474;46.510;6.686;2023-04-01T06:37:16;45.30;;;43.50;;
57643;SDS011;43474;46.510;6.686;2023-04-01T06:39:59;51.03;;;48.92;;
57643;SDS011;43474;46.510;6.686;2023-04-01T06:42:40;66.28;;;63.47;;
57643;SDS011;43474;46.510;6.686;2023-04-01T06:54:21;47.75;;;45.75;;
57643;SDS011;43474;46.510;6.686;2023-04-01T06:56:58;42.88;;;41.08;;
57643;SDS011;43474;46.510;6.686;2023-04-01T06:59:32;40.30;;;38.65;;
57643;SDS011;43474;46.510;6.686;2023-04-01T07:05:04;37.97;;;36.47;;
57643;SDS011;43474;46.510;6.686;2023-04-01T07:07:35;35.10;;;33.63;;
57643;SDS011;43474;46.510;6.686;2023-04-01T07:10:10;35.13;;;33.53;;
57643;SDS011;43474;46.510;6.686;2023-04-01T07:12:48;34.90;;;33.47;;
57643;SDS011;43474;46.510;6.686;2023-04-01T07:15:21;33.45;;;32.13;;
57643;SDS011;43474;46.510;6.686;2023-04-01T07:18:12;31.23;;;30.02;;
57643;SDS011;43474;46.510;6.686;2023-04-01T07:20:53;30.48;;;29.27;;
57643;SDS011;43474;46.510;6.686;2023-04-01T07:23:24;30.13;;;28.77;;
57643;SDS011;43474;46.510;6.686;2023-04-01T07:25:55;29.40;;;28.15;;
57643;SDS011;43474;46.510;6.686;2023-04-01T07:28:26;31.13;;;29.73;;
57643;SDS011;43474;46.510;6.686;2023-04-01T07:36:33;33.42;;;32.03;;
57643;SDS011;43474;46.510;6.686;2023-04-01T07:42:16;35.00;;;33.30;;
57643;SDS011;43474;46.510;6.686;2023-04-01T07:55:38;43.10;;;41.28;;
57643;SDS011;43474;46.510;6.686;2023-04-01T08:09:50;70.70;;;67.78;;
57643;SDS011;43474;46.510;6.686;2023-04-01T08:20:24;115.13;;;110.25;;
57643;SDS011;43474;46.510;6.686;2023-04-01T08:26:32;106.88;;;102.22;;
57643;SDS011;43474;46.510;6.686;2023-04-01T08:28:57;106.43;;;101.97;;
57643;SDS011;43474;46.510;6.686;2023-04-01T08:34:02;109.63;;;104.82;;
57643;SDS011;43474;46.510;6.686;2023-04-01T08:36:34;126.75;;;121.32;;
57643;SDS011;43474;46.510;6.686;2023-04-01T08:39:06;122.57;;;117.38;;
57643;SDS011;43474;46.510;6.686;2023-04-01T08:44:33;143.40;;;137.07;;
57643;SDS011;43474;46.510;6.686;2023-04-01T08:53:18;180.13;;;172.13;;
57643;SDS011;43474;46.510;6.686;2023-04-01T08:58:59;172.77;;;165.13;;
57643;SDS011;43474;46.510;6.686;2023-04-01T09:02:12;174.68;;;167.07;;
57643;SDS011;43474;46.510;6.686;2023-04-01T09:10:06;198.10;;;189.35;;
57643;SDS011;43474;46.510;6.686;2023-04-01T09:12:56;207.88;;;198.80;;
57643;SDS011;43474;46.510;6.686;2023-04-01T09:35:06;202.10;;;193.32;;
57643;SDS011;43474;46.510;6.686;2023-04-01T09:37:49;205.90;;;197.00;;
57643;SDS011;43474;46.510;6.686;2023-04-01T09:45:58;221.05;;;211.40;;
57643;SDS011;43474;46.510;6.686;2023-04-01T09:48:45;214.10;;;204.68;;
57643;SDS011;43474;46.510;6.686;2023-04-01T09:54:31;199.57;;;190.90;;
57643;SDS011;43474;46.510;6.686;2023-04-01T10:03:01;201.98;;;193.15;;
57643;SDS011;43474;46.510;6.686;2023-04-01T10:26:12;150.05;;;143.57;;
57643;SDS011;43474;46.510;6.686;2023-04-01T10:32:08;165.52;;;158.25;;
57643;SDS011;43474;46.510;6.686;2023-04-01T10:34:56;174.50;;;166.88;;
57643;SDS011;43474;46.510;6.686;2023-04-01T10:38:01;174.90;;;167.13;;
57643;SDS011;43474;46.510;6.686;2023-04-01T10:43:58;196.60;;;188.05;;
57643;SDS011;43474;46.510;6.686;2023-04-01T10:46:47;209.55;;;200.35;;
57643;SDS011;43474;46.510;6.686;2023-04-01T10:52:48;223.88;;;213.85;;
57643;SDS011;43474;46.510;6.686;2023-04-01T11:01:22;240.38;;;229.88;;
57643;SDS011;43474;46.510;6.686;2023-04-01T11:04:13;244.80;;;234.05;;
57643;SDS011;43474;46.510;6.686;2023-04-01T11:26:36;162.88;;;155.52;;
57643;SDS011;43474;46.510;6.686;2023-04-01T11:34:44;95.45;;;91.28;;
57643;SDS011;43474;46.510;6.686;2023-04-01T11:40:17;72.72;;;69.53;;
57643;SDS011;43474;46.510;6.686;2023-04-01T11:43:08;58.00;;;55.50;;
57643;SDS011;43474;46.510;6.686;2023-04-01T11:45:39;54.47;;;52.22;;
57643;SDS011;43474;46.510;6.686;2023-04-01T11:51:21;58.80;;;56.33;;
57643;SDS011;43474;46.510;6.686;2023-04-01T12:02:55;141.30;;;135.15;;
57643;SDS011;43474;46.510;6.686;2023-04-01T12:05:47;143.82;;;137.50;;
57643;SDS011;43474;46.510;6.686;2023-04-01T12:13:49;206.15;;;197.13;;
57643;SDS011;43474;46.510;6.686;2023-04-01T12:18:55;222.25;;;212.45;;
57643;SDS011;43474;46.510;6.686;2023-04-01T12:21:32;219.32;;;209.75;;
57643;SDS011;43474;46.510;6.686;2023-04-01T12:38:48;236.60;;;226.15;;
57643;SDS011;43474;46.510;6.686;2023-04-01T12:44:56;227.55;;;217.65;;
57643;SDS011;43474;46.510;6.686;2023-04-01T12:47:47;167.55;;;160.20;;
57643;SDS011;43474;46.510;6.686;2023-04-01T12:56:09;136.50;;;130.68;;
57643;SDS011;43474;46.510;6.686;2023-04-01T12:59:52;156.00;;;149.18;;
57643;SDS011;43474;46.510;6.686;2023-04-01T13:29:23;105.07;;;100.60;;
57643;SDS011;43474;46.510;6.686;2023-04-01T13:40:36;115.93;;;111.03;;
57643;SDS011;43474;46.510;6.686;2023-04-01T13:43:31;144.57;;;138.32;;
57643;SDS011;43474;46.510;6.686;2023-04-01T13:54:37;135.43;;;129.63;;
57643;SDS011;43474;46.510;6.686;2023-04-01T14:08:52;107.50;;;102.75;;
57643;SDS011;43474;46.510;6.686;2023-04-01T14:14:39;120.68;;;115.57;;
57643;SDS011;43474;46.510;6.686;2023-04-01T14:17:17;69.13;;;66.22;;
57643;SDS011;43474;46.510;6.686;2023-04-01T14:28:31;108.78;;;104.15;;
57643;SDS011;43474;46.510;6.686;2023-04-01T14:34:03;126.10;;;120.75;;
57643;SDS011;43474;46.510;6.686;2023-04-01T14:36:41;133.45;;;127.75;;
57643;SDS011;43474;46.510;6.686;2023-04-01T14:39:49;155.52;;;148.65;;
57643;SDS011;43474;46.510;6.686;2023-04-01T14:45:33;176.80;;;169.07;;
57643;SDS011;43474;46.510;6.686;2023-04-01T14:48:29;161.23;;;154.18;;
57643;SDS011;43474;46.510;6.686;2023-04-01T14:51:20;173.18;;;165.60;;
57643;SDS011;43474;46.510;6.686;2023-04-01T14:54:08;176.00;;;168.18;;
57643;SDS011;43474;46.510;6.686;2023-04-01T14:57:10;198.20;;;189.48;;
57643;SDS011;43474;46.510;6.686;2023-04-01T14:59:39;203.73;;;194.77;;
57643;SDS011;43474;46.510;6.686;2023-04-01T15:05:39;227.48;;;217.43;;
57643;SDS011;43474;46.510;6.686;2023-04-01T15:08:20;223.07;;;213.38;;
57643;SDS011;43474;46.510;6.686;2023-04-01T15:16:34;218.93;;;209.38;;
57643;SDS011;43474;46.510;6.686;2023-04-01T15:30:18;195.23;;;186.52;;
57643;SDS011;43474;46.510;6.686;2023-04-01T15:41:02;168.82;;;161.43;;
57643;SDS011;43474;46.510;6.686;2023-04-01T15:43:43;182.40;;;174.32;;
57643;SDS011;43474;46.510;6.686;2023-04-01T15:49:01;174.18;;;166.57;;
57643;SDS011;43474;46.510;6.686;2023-04-01T15:56:56;210.40;;;201.20;;
57643;SDS011;43474;46.510;6.686;2023-04-01T16:08:46;239.10;;;228.60;;
57643;SDS011;43474;46.510;6.686;2023-04-01T16:11:18;228.05;;;218.07;;
57643;SDS011;43474;46.510;6.686;2023-04-01T16:29:47;231.05;;;220.82;;
57643;SDS011;43474;46.510;6.686;2023-04-01T16:35:14;239.95;;;229.35;;
57643;SDS011;43474;46.510;6.686;2023-04-01T16:37:47;245.90;;;234.77;;
57643;SDS011;43474;46.510;6.686;2023-04-01T16:40:24;238.40;;;227.85;;
57643;SDS011;43474;46.510;6.686;2023-04-01T16:51:47;251.02;;;239.90;;
57643;SDS011;43474;46.510;6.686;2023-04-01T16:59:55;245.23;;;234.30;;
57643;SDS011;43474;46.510;6.686;2023-04-01T17:02:43;242.32;;;231.43;;
57643;SDS011;43474;46.510;6.686;2023-04-01T17:05:15;238.57;;;228.13;;
57643;SDS011;43474;46.510;6.686;2023-04-01T17:07:44;234.05;;;223.82;;
57643;SDS011;43474;46.510;6.686;2023-04-01T17:10:42;236.32;;;225.98;;
57643;SDS011;43474;46.510;6.686;2023-04-01T17:16:19;226.57;;;216.63;;
57643;SDS011;43474;46.510;6.686;2023-04-01T17:38:09;232.32;;;221.98;;
57643;SDS011;43474;46.510;6.686;2023-04-01T17:41:07;219.00;;;209.40;;
57643;SDS011;43474;46.510;6.686;2023-04-01T17:51:55;213.95;;;204.40;;
57643;SDS011;43474;46.510;6.686;2023-04-01T18:00:06;211.27;;;202.10;;
57643;SDS011;43474;46.510;6.686;2023-04-01T18:16:52;212.30;;;203.07;;
57643;SDS011;43474;46.510;6.686;2023-04-01T18:19:56;207.02;;;197.95;;
57643;SDS011;43474;46.510;6.686;2023-04-01T18:22:41;205.32;;;196.38;;
57643;SDS011;43474;46.510;6.686;2023-04-01T18:25:15;196.63;;;188.00;;
57643;SDS011;43474;46.510;6.686;2023-04-01T18:27:47;195.10;;;186.57;;
57643;SDS011;43474;46.510;6.686;2023-04-01T18:30:35;194.10;;;185.60;;
57643;SDS011;43474;46.510;6.686;2023-04-01T18:33:07;196.38;;;187.68;;
57643;SDS011;43474;46.510;6.686;2023-04-01T18:35:54;199.60;;;190.93;;
57643;SDS011;43474;46.510;6.686;2023-04-01T18:38:39;202.80;;;193.75;;
57643;SDS011;43474;46.510;6.686;2023-04-01T18:46:47;218.00;;;208.32;;
57643;SDS011;43474;46.510;6.686;2023-04-01T18:51:59;216.02;;;206.60;;
57643;SDS011;43474;46.510;6.686;2023-04-01T18:54:33;218.07;;;208.57;;
57643;SDS011;43474;46.510;6.686;2023-04-01T18:57:14;213.05;;;203.73;;
57643;SDS011;43474;46.510;6.686;2023-04-01T18:59:42;210.10;;;200.88;;
57643;SDS011;43474;46.510;6.686;2023-04-01T19:10:13;206.65;;;197.48;;
57643;SDS011;43474;46.510;6.686;2023-04-01T19:15:24;200.27;;;191.47;;
57643;SDS011;43474;46.510;6.686;2023-04-01T19:26:02;191.23;;;182.88;;
57643;SDS011;43474;46.510;6.686;2023-04-01T19:28:48;191.85;;;183.27;;
57643;SDS011;43474;46.510;6.686;2023-04-01T19:36:52;180.55;;;172.65;;
57643;SDS011;43474;46.510;6.686;2023-04-01T19:44:50;180.35;;;172.32;;
57643;SDS011;43474;46.510;6.686;2023-04-01T19:52:54;187.10;;;178.90;;
57643;SDS011;43474;46.510;6.686;2023-04-01T19:58:18;189.55;;;181.20;;
57643;SDS011;43474;46.510;6.686;2023-04-01T20:01:00;181.93;;;173.93;;
57643;SDS011;43474;46.510;6.686;2023-04-01T20:11:35;172.95;;;165.20;;
57643;SDS011;43474;46.510;6.686;2023-04-01T20:14:23;169.35;;;161.82;;
57643;SDS011;43474;46.510;6.686;2023-04-01T20:17:09;167.13;;;159.75;;
57643;SDS011;43474;46.510;6.686;2023-04-01T20:19:53;167.32;;;159.98;;
57643;SDS011;43474;46.510;6.686;2023-04-01T20:24:56;161.45;;;154.40;;
57643;SDS011;43474;46.510;6.686;2023-04-01T20:27:27;166.52;;;159.07;;
57643;SDS011;43474;46.510;6.686;2023-04-01T20:30:19;164.35;;;157.13;;
57643;SDS011;43474;46.510;6.686;2023-04-01T20:33:21;165.77;;;158.25;;
57643;SDS011;43474;46.510;6.686;2023-04-01T20:36:00;163.73;;;156.57;;
57643;SDS011;43474;46.510;6.686;2023-04-01T20:41:12;164.25;;;157.07;;
57643;SDS011;43474;46.510;6.686;2023-04-01T20:43:51;167.40;;;160.15;;
57643;SDS011;43474;46.510;6.686;2023-04-01T20:46:20;169.70;;;162.25;;
57643;SDS011;43474;46.510;6.686;2023-04-01T20:54:42;167.48;;;160.13;;
57643;SDS011;43474;46.510;6.686;2023-04-01T20:57:16;158.85;;;151.82;;
57643;SDS011;43474;46.510;6.686;2023-04-01T21:14:32;148.95;;;142.50;;
57643;SDS011;43474;46.510;6.686;2023-04-01T21:20:04;144.02;;;137.77;;
57643;SDS011;43474;46.510;6.686;2023-04-01T21:25:51;142.00;;;135.85;;
57643;SDS011;43474;46.510;6.686;2023-04-01T21:28:35;143.00;;;136.75;;
57643;SDS011;43474;46.510;6.686;2023-04-01T21:39:22;148.93;;;142.45;;
57643;SDS011;43474;46.510;6.686;2023-04-01T21:44:58;157.50;;;150.65;;
57643;SDS011;43474;46.510;6.686;2023-04-01T21:50:44;168.95;;;161.32;;
57643;SDS011;43474;46.510;6.686;2023-04-01T21:56:15;183.60;;;175.55;;
57643;SDS011;43474;46.510;6.686;2023-04-01T21:58:57;178.50;;;170.70;;
57643;SDS011;43474;46.510;6.686;2023-04-01T22:06:59;181.80;;;173.75;;
57643;SDS011;43474;46.510;6.686;2023-04-01T22:09:37;181.90;;;173.93;;
57643;SDS011;43474;46.510;6.686;2023-04-01T22:12:27;187.70;;;179.52;;
57643;SDS011;43474;46.510;6.686;2023-04-01T22:15:28;198.85;;;190.25;;
57643;SDS011;43474;46.510;6.686;2023-04-01T22:26:53;189.75;;;181.45;;
57643;SDS011;43474;46.510;6.686;2023-04-01T22:29:52;181.38;;;173.43;;
57643;SDS011;43474;46.510;6.686;2023-04-01T22:32:52;183.05;;;174.88;;
57643;SDS011;43474;46.510;6.686;2023-04-01T22:35:31;176.70;;;168.90;;
57643;SDS011;43474;46.510;6.686;2023-04-01T22:38:07;176.40;;;168.57;;
57643;SDS011;43474;46.510;6.686;2023-04-01T22:43:36;176.30;;;168.38;;
57643;SDS011;43474;46.510;6.686;2023-04-01T22:46:14;184.85;;;176.75;;
57643;SDS011;43474;46.510;6.686;2023-04-01T22:48:54;182.88;;;174.75;;
57643;SDS011;43474;46.510;6.686;2023-04-01T22:57:02;186.80;;;178.45;;
57643;SDS011;43474;46.510;6.686;2023-04-01T23:02:31;176.15;;;168.18;;
57643;SDS011;43474;46.510;6.686;2023-04-01T23:05:00;174.85;;;167.23;;
57643;SDS011;43474;46.510;6.686;2023-04-01T23:12:52;185.07;;;176.95;;
57643;SDS011;43474;46.510;6.686;2023-04-01T23:15:22;171.90;;;164.10;;
57643;SDS011;43474;46.510;6.686;2023-04-01T23:18:05;168.13;;;160.68;;
57643;SDS011;43474;46.510;6.686;2023-04-01T23:23:53;165.52;;;158.23;;
57643;SDS011;43474;46.510;6.686;2023-04-01T23:26:36;161.35;;;154.15;;
57643;SDS011;43474;46.510;6.686;2023-04-01T23:29:11;159.63;;;152.57;;
57643;SDS011;43474;46.510;6.686;2023-04-01T23:31:41;161.18;;;154.07;;
57643;SDS011;43474;46.510;6.686;2023-04-01T23:36:43;162.90;;;155.75;;
57643;SDS011;43474;46.510;6.686;2023-04-01T23:39:17;164.57;;;157.38;;
57643;SDS011;43474;46.510;6.686;2023-04-01T23:41:48;161.27;;;154.20;;
57643;SDS011;43474;46.510;6.686;2023-04-01T23:44:17;162.32;;;155.23;;
57643;SDS011;43474;46.510;6.686;2023-04-01T23:46:44;166.00;;;158.77;;
57643;SDS011;43474;46.510;6.686;2023-04-01T23:49:13;161.95;;;154.80;;
57643;SDS011;43474;46.510;6.686;2023-04-01T23:51:49;166.45;;;159.13;;
57643;SDS011;43474;46.510;6.686;2023-04-01T23:54:19;167.82;;;160.48;;
57643;SDS011;43474;46.510;6.686;2023-04-01T23:56:53;165.43;;;158.18;;
57643;SDS011;43474;46.510;6.686;2023-04-01T23:59:27;163.52;;;156.38;;
